Time;durP1;ratioP1;P1;durP2;ratioP2;P2;SDS_P1;SDS_P2;PMS_P1;PMS_P2;Temp;Humidity;BMP_temperature;BMP_pressure;BME280_temperature;BME280_humidity;BME280_pressure;Samples;Min_cycle;Max_cycle;Signal;HPM_P1;HPM_P2
2022/03/18 00:02:24;;;;;;;65.97;37.97;;;7.30;65.70;;;;;;5033708;28;46222;-64
2022/03/18 00:04:51;;;;;;;65.83;38.60;;;7.20;65.60;;;;;;5026245;28;46391;-64
2022/03/18 00:07:17;;;;;;;66.07;39.30;;;7.20;65.60;;;;;;5032478;28;46403;-65
2022/03/18 00:09:43;;;;;;;65.67;39.30;;;7.20;67.00;;;;;;5033975;28;45957;-64
2022/03/18 00:12:10;;;;;;;67.63;38.50;;;7.10;65.80;;;;;;5029117;28;46417;-64
2022/03/18 00:14:39;;;;;;;64.20;38.20;;;7.10;65.80;;;;;;5027546;28;46452;-64
2022/03/18 00:17:04;;;;;;;69.40;40.17;;;7.10;65.90;;;;;;5027110;28;45887;-64
2022/03/18 00:19:31;;;;;;;70.83;39.37;;;7.10;65.90;;;;;;5032602;28;46544;-64
2022/03/18 00:22:01;;;;;;;73.83;41.73;;;7.00;65.80;;;;;;5033648;28;47025;-64
2022/03/18 00:24:27;;;;;;;73.93;41.17;;;7.00;65.90;;;;;;5036894;28;46349;-64
2022/03/18 00:26:53;;;;;;;71.23;41.23;;;7.00;66.00;;;;;;5031007;28;46513;-64
2022/03/18 00:29:18;;;;;;;70.07;39.50;;;7.00;66.10;;;;;;5031785;28;46640;-64
2022/03/18 00:31:44;;;;;;;71.03;41.07;;;7.00;66.00;;;;;;5032017;28;46463;-64
2022/03/18 00:34:10;;;;;;;70.33;40.20;;;7.00;66.00;;;;;;5029438;28;46543;-64
2022/03/18 00:36:36;;;;;;;72.50;39.17;;;6.90;66.00;;;;;;5027156;28;45791;-64
2022/03/18 00:39:03;;;;;;;69.27;40.00;;;6.90;66.10;;;;;;5026935;28;45921;-65
2022/03/18 00:41:28;;;;;;;73.07;41.50;;;6.90;67.30;;;;;;5024357;28;46371;-65
2022/03/18 00:43:54;;;;;;;69.83;39.57;;;6.90;66.10;;;;;;5022327;28;45871;-64
2022/03/18 00:46:22;;;;;;;71.70;38.90;;;6.90;66.10;;;;;;5038522;28;46366;-65
2022/03/18 00:54:17;;;;;;;65.30;38.27;;;6.90;66.00;;;;;;5028101;28;46333;-65
2022/03/18 00:56:43;;;;;;;68.63;37.27;;;6.90;65.90;;;;;;5034083;28;46389;-64
2022/03/18 00:59:09;;;;;;;67.50;38.50;;;6.90;66.00;;;;;;5029453;28;46310;-64
2022/03/18 01:01:35;;;;;;;65.90;38.40;;;6.90;66.10;;;;;;5029117;28;46346;-65
2022/03/18 01:04:01;;;;;;;63.87;39.00;;;6.90;66.20;;;;;;5032579;28;46401;-64
2022/03/18 01:06:26;;;;;;;67.37;38.07;;;6.90;66.20;;;;;;5025735;28;46414;-65
2022/03/18 01:08:52;;;;;;;70.77;39.90;;;6.90;66.20;;;;;;5028275;28;46442;-64
2022/03/18 01:11:17;;;;;;;67.73;37.53;;;6.90;66.10;;;;;;5027839;28;46454;-65
2022/03/18 01:13:43;;;;;;;66.60;37.67;;;6.90;66.10;;;;;;5034076;28;46579;-65
2022/03/18 01:16:09;;;;;;;70.10;39.20;;;6.90;66.10;;;;;;5034411;28;46412;-64
2022/03/18 01:18:35;;;;;;;69.30;39.83;;;6.90;66.10;;;;;;5035914;28;45817;-65
2022/03/18 01:21:00;;;;;;;73.57;37.97;;;6.90;66.20;;;;;;5027109;28;46942;-65
2022/03/18 01:23:26;;;;;;;62.87;38.97;;;6.90;66.20;;;;;;5029511;28;46783;-64
2022/03/18 01:25:51;;;;;;;64.60;38.30;;;6.90;66.20;;;;;;5036327;28;46569;-63
2022/03/18 01:28:17;;;;;;;69.80;39.80;;;6.90;66.20;;;;;;5033884;28;46378;-64
2022/03/18 01:30:43;;;;;;;68.40;38.77;;;7.00;66.30;;;;;;5027723;28;46360;-65
2022/03/18 01:33:08;;;;;;;69.60;39.83;;;7.00;66.10;;;;;;5032126;28;46288;-63
2022/03/18 01:35:34;;;;;;;71.30;40.07;;;7.00;66.10;;;;;;5034660;28;46463;-65
2022/03/18 01:38:00;;;;;;;66.63;38.40;;;7.00;66.00;;;;;;5030513;28;46251;-65
2022/03/18 01:40:25;;;;;;;68.27;38.00;;;7.00;66.20;;;;;;5029313;28;46344;-65
2022/03/18 01:42:51;;;;;;;67.47;39.00;;;7.00;66.10;;;;;;5028312;28;46287;-64
2022/03/18 01:45:16;;;;;;;66.70;38.47;;;7.00;66.00;;;;;;5029690;28;46774;-65
2022/03/18 01:47:45;;;;;;;64.33;36.70;;;7.00;66.10;;;;;;5029521;28;46612;-64
2022/03/18 01:50:11;;;;;;;66.20;39.27;;;7.00;66.00;;;;;;5029671;28;46991;-64
2022/03/18 01:52:38;;;;;;;67.00;38.83;;;7.00;66.00;;;;;;5031392;28;46421;-65
2022/03/18 01:55:04;;;;;;;66.00;38.37;;;7.10;66.10;;;;;;5030604;28;46669;-65
2022/03/18 01:57:30;;;;;;;65.17;37.60;;;7.00;65.90;;;;;;5032491;28;46369;-64
2022/03/18 01:59:56;;;;;;;66.27;37.33;;;7.10;65.80;;;;;;5034174;28;47112;-65
2022/03/18 02:02:22;;;;;;;68.00;38.00;;;7.10;65.80;;;;;;5030719;28;46432;-65
2022/03/18 02:04:48;;;;;;;71.10;39.50;;;7.10;65.70;;;;;;5031841;28;46345;-64
2022/03/18 02:07:15;;;;;;;66.13;36.80;;;7.10;65.60;;;;;;5030648;28;46538;-65
2022/03/18 02:09:42;;;;;;;64.93;39.83;;;7.10;65.60;;;;;;5028501;28;47000;-64
2022/03/18 02:12:09;;;;;;;67.93;39.70;;;7.10;65.50;;;;;;5028635;28;46643;-64
2022/03/18 02:14:42;;;;;;;69.67;40.77;;;7.10;65.60;;;;;;5029582;28;46416;-64
2022/03/18 02:17:10;;;;;;;67.90;38.43;;;7.10;65.50;;;;;;5027255;28;46001;-65
2022/03/18 02:19:37;;;;;;;64.47;38.03;;;7.10;65.60;;;;;;5027704;28;47289;-65
2022/03/18 02:22:12;;;;;;;69.37;39.60;;;7.10;65.80;;;;;;5028966;28;46850;-63
2022/03/18 02:24:40;;;;;;;66.90;38.80;;;7.10;65.90;;;;;;5029695;28;46398;-65
2022/03/18 02:27:06;;;;;;;66.37;38.53;;;7.10;66.00;;;;;;5031490;28;46457;-64
2022/03/18 02:29:32;;;;;;;64.80;38.60;;;7.00;65.90;;;;;;5029060;28;47172;-66
2022/03/18 02:31:59;;;;;;;66.80;38.17;;;7.00;66.00;;;;;;5028977;28;45859;-63
2022/03/18 02:34:27;;;;;;;69.03;39.07;;;7.10;66.10;;;;;;5027950;28;46431;-64
2022/03/18 02:36:52;;;;;;;59.23;35.93;;;7.00;66.10;;;;;;5029069;28;46386;-64
2022/03/18 02:39:18;;;;;;;61.60;36.80;;;7.00;66.10;;;;;;5032147;28;46497;-65
2022/03/18 02:41:43;;;;;;;57.57;35.70;;;7.10;66.20;;;;;;5030029;28;46383;-64
2022/03/18 02:44:09;;;;;;;67.67;36.97;;;7.00;66.20;;;;;;5032342;28;46554;-63
2022/03/18 02:46:35;;;;;;;62.60;36.47;;;7.00;66.20;;;;;;5032825;28;46404;-64
2022/03/18 02:49:02;;;;;;;68.07;37.97;;;7.00;66.20;;;;;;5030728;28;46344;-65
2022/03/18 02:51:28;;;;;;;66.13;37.60;;;7.00;66.10;;;;;;5024558;28;46367;-64
2022/03/18 02:53:55;;;;;;;64.30;38.83;;;7.00;66.20;;;;;;5029964;28;45887;-65
2022/03/18 02:56:21;;;;;;;71.77;39.90;;;7.00;66.10;;;;;;5029459;28;46418;-65
2022/03/18 02:58:46;;;;;;;64.63;37.07;;;7.10;66.20;;;;;;5029615;28;46433;-63
2022/03/18 03:01:12;;;;;;;65.00;36.93;;;7.10;66.30;;;;;;5024230;28;46463;-63
2022/03/18 03:03:38;;;;;;;63.83;37.90;;;7.10;66.30;;;;;;5029469;28;46624;-63
2022/03/18 03:08:47;;;;;;;64.73;39.00;;;7.00;66.40;;;;;;5031446;28;46564;-64
2022/03/18 03:11:13;;;;;;;68.30;38.70;;;7.10;66.40;;;;;;5024686;28;45875;-63
2022/03/18 03:13:39;;;;;;;62.27;36.70;;;7.10;66.40;;;;;;5022900;28;46499;-64
2022/03/18 03:16:05;;;;;;;64.93;38.17;;;7.10;66.50;;;;;;5024749;28;45900;-65
2022/03/18 03:18:30;;;;;;;70.90;37.30;;;7.00;66.40;;;;;;5026068;28;47148;-65
2022/03/18 03:20:57;;;;;;;60.83;37.77;;;7.10;66.40;;;;;;5030384;28;46397;-65
2022/03/18 03:23:26;;;;;;;67.57;38.10;;;7.10;66.30;;;;;;5028230;28;46287;-64
2022/03/18 03:25:55;;;;;;;63.50;36.10;;;7.10;66.30;;;;;;5033361;28;46635;-65
2022/03/18 03:28:21;;;;;;;64.53;36.93;;;7.10;66.40;;;;;;5033861;28;46500;-65
2022/03/18 03:30:48;;;;;;;64.97;36.90;;;7.10;66.50;;;;;;5031373;28;46387;-64
2022/03/18 03:33:14;;;;;;;62.50;36.03;;;7.00;66.40;;;;;;5030125;28;46310;-64
2022/03/18 03:35:40;;;;;;;63.90;36.10;;;7.00;66.50;;;;;;5029261;28;45827;-64
2022/03/18 03:38:06;;;;;;;64.10;37.03;;;7.00;66.50;;;;;;5029510;28;47172;-64
2022/03/18 03:40:32;;;;;;;66.27;37.67;;;7.00;66.70;;;;;;5027377;28;46346;-65
2022/03/18 03:42:58;;;;;;;65.03;37.53;;;7.00;66.80;;;;;;5030364;28;46538;-63
2022/03/18 03:45:24;;;;;;;65.70;37.50;;;6.90;66.80;;;;;;5032497;28;46652;-65
2022/03/18 03:47:50;;;;;;;69.33;38.30;;;6.90;66.90;;;;;;5032837;28;46451;-65
2022/03/18 03:50:15;;;;;;;59.83;35.83;;;6.90;66.90;;;;;;5033353;28;46331;-64
2022/03/18 03:52:42;;;;;;;67.53;37.33;;;6.90;67.00;;;;;;5025480;28;46535;-65
2022/03/18 03:55:10;;;;;;;75.23;39.83;;;6.80;67.00;;;;;;5031669;28;45894;-64
2022/03/18 03:57:36;;;;;;;69.77;38.80;;;6.90;67.10;;;;;;5030979;28;47986;-64
2022/03/18 04:00:03;;;;;;;64.57;36.50;;;6.80;67.00;;;;;;5035220;28;46361;-64
2022/03/18 04:02:29;;;;;;;64.47;39.10;;;6.90;67.10;;;;;;5032588;28;46433;-64
2022/03/18 04:04:57;;;;;;;64.33;38.30;;;6.80;67.10;;;;;;5033967;28;46397;-64
2022/03/18 04:07:24;;;;;;;68.70;36.77;;;6.80;67.00;;;;;;5028878;28;46468;-64
2022/03/18 04:09:51;;;;;;;69.07;37.40;;;6.80;67.10;;;;;;5029392;28;46724;-64
2022/03/18 04:12:17;;;;;;;62.53;38.17;;;6.80;67.00;;;;;;5034504;28;46396;-64
2022/03/18 04:14:42;;;;;;;77.13;38.17;;;6.90;67.10;;;;;;5033464;28;46677;-64
2022/03/18 04:17:08;;;;;;;63.63;37.57;;;6.80;66.90;;;;;;5028671;28;46383;-64
2022/03/18 04:19:34;;;;;;;65.47;36.97;;;6.80;66.90;;;;;;5035289;28;46637;-64
2022/03/18 04:21:59;;;;;;;66.50;37.73;;;6.80;67.00;;;;;;5035409;28;46028;-65
2022/03/18 04:24:25;;;;;;;66.37;38.50;;;6.80;67.00;;;;;;5031374;28;46477;-64
2022/03/18 04:26:50;;;;;;;65.87;38.57;;;6.90;67.20;;;;;;5031181;28;47465;-65
2022/03/18 04:29:16;;;;;;;73.27;39.57;;;6.80;67.10;;;;;;5028923;28;46450;-64
2022/03/18 04:31:42;;;;;;;72.33;39.50;;;6.80;67.10;;;;;;5031106;28;46109;-64
2022/03/18 04:34:08;;;;;;;77.60;43.53;;;6.90;67.20;;;;;;5030974;28;46591;-64
2022/03/18 04:36:34;;;;;;;72.23;41.03;;;6.90;67.10;;;;;;5029597;28;46586;-64
2022/03/18 04:39:01;;;;;;;77.93;42.73;;;6.90;67.00;;;;;;5034726;28;46220;-64
2022/03/18 04:41:27;;;;;;;76.63;41.90;;;7.00;67.00;;;;;;5032228;28;46454;-64
2022/03/18 04:43:52;;;;;;;84.80;44.40;;;6.90;66.90;;;;;;5026406;28;46578;-64
2022/03/18 04:46:18;;;;;;;89.57;42.20;;;6.90;67.10;;;;;;5035976;28;46484;-63
2022/03/18 04:48:43;;;;;;;76.90;43.50;;;6.90;67.20;;;;;;5033796;28;46426;-63
2022/03/18 04:51:09;;;;;;;78.43;41.17;;;6.90;67.30;;;;;;5031611;28;46408;-65
2022/03/18 04:53:36;;;;;;;73.90;41.53;;;6.80;67.40;;;;;;5032388;28;45889;-64
2022/03/18 04:56:01;;;;;;;65.53;40.30;;;6.90;67.40;;;;;;5032015;28;46365;-66
2022/03/18 04:58:27;;;;;;;70.60;41.93;;;7.00;67.30;;;;;;5031232;28;46471;-65
2022/03/18 05:00:53;;;;;;;65.70;38.10;;;7.00;67.10;;;;;;5030680;28;46386;-65
2022/03/18 05:03:18;;;;;;;69.00;41.73;;;7.00;67.00;;;;;;5031256;28;45914;-65
2022/03/18 05:05:44;;;;;;;77.20;43.20;;;7.00;67.00;;;;;;5029217;28;46670;-64
2022/03/18 05:08:09;;;;;;;73.80;41.13;;;7.00;66.80;;;;;;5029534;28;46327;-64
2022/03/18 05:10:36;;;;;;;76.57;41.60;;;7.00;66.80;;;;;;5035251;28;46338;-65
2022/03/18 05:13:02;;;;;;;73.03;41.80;;;7.00;67.00;;;;;;5032053;28;45973;-64
2022/03/18 05:15:28;;;;;;;71.07;42.47;;;7.00;67.10;;;;;;5029747;28;46485;-64
2022/03/18 05:17:54;;;;;;;71.17;40.47;;;7.00;67.30;;;;;;5030533;28;46605;-64
2022/03/18 05:20:20;;;;;;;70.90;41.33;;;6.90;67.30;;;;;;5032858;28;46544;-64
2022/03/18 05:22:46;;;;;;;76.37;41.80;;;6.90;67.50;;;;;;5027589;28;46627;-64
2022/03/18 05:25:13;;;;;;;72.23;41.17;;;6.90;67.60;;;;;;5031044;28;46336;-64
2022/03/18 05:27:43;;;;;;;73.73;41.27;;;6.90;67.70;;;;;;5032223;28;46593;-64
2022/03/18 05:30:14;;;;;;;70.60;42.40;;;6.80;67.80;;;;;;5033051;28;46530;-64
2022/03/18 05:32:40;;;;;;;74.73;42.00;;;6.80;67.90;;;;;;5033278;28;46616;-64
2022/03/18 05:35:07;;;;;;;75.93;42.27;;;6.80;68.30;;;;;;5033093;28;46494;-64
2022/03/18 05:37:32;;;;;;;76.53;40.83;;;6.70;68.50;;;;;;5030458;28;46411;-64
2022/03/18 05:39:58;;;;;;;71.80;42.40;;;6.60;68.80;;;;;;5030629;28;46496;-62
2022/03/18 05:42:24;;;;;;;75.93;41.17;;;6.60;69.40;;;;;;5030110;28;46485;-65
2022/03/18 05:44:49;;;;;;;70.10;39.77;;;6.60;69.90;;;;;;5024601;28;47313;-65
2022/03/18 05:47:16;;;;;;;72.40;42.00;;;6.50;69.90;;;;;;5025223;28;46378;-64
2022/03/18 05:49:41;;;;;;;70.87;40.53;;;6.50;70.00;;;;;;5022763;28;46342;-64
2022/03/18 05:52:08;;;;;;;73.83;40.40;;;6.50;70.50;;;;;;5030315;28;46280;-64
2022/03/18 05:54:33;;;;;;;68.53;38.63;;;6.50;70.50;;;;;;5036535;28;46630;-65
2022/03/18 05:56:59;;;;;;;68.03;38.30;;;6.40;70.70;;;;;;5037186;28;46358;-64
2022/03/18 05:59:27;;;;;;;69.40;39.20;;;6.50;70.90;;;;;;5027686;28;46383;-63
2022/03/18 06:01:54;;;;;;;62.60;35.03;;;6.50;70.90;;;;;;5031468;28;46433;-64
2022/03/18 06:04:20;;;;;;;70.90;38.90;;;6.60;71.10;;;;;;5030020;28;46434;-64
2022/03/18 06:06:47;;;;;;;60.17;37.37;;;6.50;70.90;;;;;;5030509;28;46344;-64
2022/03/18 06:11:59;;;;;;;58.90;35.20;;;6.60;70.70;;;;;;5028276;28;46374;-64
2022/03/18 06:14:26;;;;;;;67.03;37.00;;;6.60;70.60;;;;;;5029722;28;46972;-65
2022/03/18 06:16:57;;;;;;;61.83;36.57;;;6.60;70.80;;;;;;5025283;28;46461;-63
2022/03/18 06:19:24;;;;;;;57.40;34.23;;;6.60;70.70;;;;;;5026984;28;46279;-63
2022/03/18 06:21:50;;;;;;;61.50;35.67;;;6.60;71.00;;;;;;5023382;28;46332;-62
2022/03/18 06:24:17;;;;;;;66.00;36.37;;;6.60;71.00;;;;;;5034113;28;46559;-64
2022/03/18 06:26:43;;;;;;;63.37;36.70;;;6.70;71.00;;;;;;5034728;28;45919;-65
2022/03/18 06:29:09;;;;;;;60.87;35.53;;;6.70;70.70;;;;;;5035007;28;46390;-64
2022/03/18 06:31:35;;;;;;;66.90;37.17;;;6.70;70.80;;;;;;5028231;28;46399;-64
2022/03/18 06:34:01;;;;;;;58.87;34.70;;;6.80;70.90;;;;;;5031129;28;46414;-64
2022/03/18 06:36:28;;;;;;;59.43;37.37;;;6.80;70.70;;;;;;5032856;28;46334;-65
2022/03/18 06:38:54;;;;;;;59.43;35.07;;;6.80;70.50;;;;;;5033449;28;46334;-64
2022/03/18 06:41:20;;;;;;;62.00;35.63;;;6.90;70.50;;;;;;5029919;28;46545;-64
2022/03/18 06:43:47;;;;;;;63.90;37.53;;;6.90;71.70;;;;;;5029896;28;46486;-63
2022/03/18 06:46:14;;;;;;;63.43;38.30;;;6.90;70.50;;;;;;5029923;28;46381;-63
2022/03/18 06:48:40;;;;;;;63.23;36.83;;;6.90;70.50;;;;;;5030911;28;46477;-64
2022/03/18 06:51:06;;;;;;;64.13;36.73;;;6.90;70.50;;;;;;5027839;28;46489;-64
2022/03/18 06:53:32;;;;;;;62.33;36.93;;;7.00;70.50;;;;;;5030189;28;46407;-64
2022/03/18 06:55:57;;;;;;;63.80;37.03;;;7.00;70.60;;;;;;5029871;28;45821;-63
2022/03/18 06:58:23;;;;;;;72.50;37.10;;;7.10;70.50;;;;;;5035017;28;46366;-64
2022/03/18 07:00:48;;;;;;;60.50;35.77;;;7.10;70.30;;;;;;5033415;28;46639;-64
2022/03/18 07:03:14;;;;;;;64.53;37.50;;;7.10;70.10;;;;;;5031085;28;46399;-64
2022/03/18 07:05:40;;;;;;;65.50;37.40;;;7.20;70.10;;;;;;5038461;28;46314;-64
2022/03/18 07:08:05;;;;;;;67.87;38.20;;;7.20;70.00;;;;;;5032626;28;46524;-64
2022/03/18 07:10:31;;;;;;;63.10;35.90;;;7.20;70.10;;;;;;5034200;28;45997;-64
2022/03/18 07:12:57;;;;;;;62.30;36.27;;;7.20;69.90;;;;;;5034772;28;46590;-63
2022/03/18 07:15:22;;;;;;;70.57;38.70;;;7.30;69.80;;;;;;5034188;28;46464;-65
2022/03/18 07:18:01;;;;;;;65.07;36.43;;;7.40;69.50;;;;;;5033193;28;46465;-65
2022/03/18 07:20:31;;;;;;;69.23;36.70;;;7.40;69.40;;;;;;5035461;28;46512;-64
2022/03/18 07:23:00;;;;;;;71.63;37.90;;;7.40;70.40;;;;;;5030565;28;47211;-65
2022/03/18 07:25:27;;;;;;;68.77;40.03;;;7.50;69.10;;;;;;5040072;28;46561;-64
2022/03/18 07:27:52;;;;;;;64.87;36.23;;;7.60;68.80;;;;;;5029680;28;46476;-65
2022/03/18 07:30:18;;;;;;;72.50;37.67;;;7.60;68.70;;;;;;5032658;28;46402;-65
2022/03/18 07:32:43;;;;;;;64.63;38.00;;;7.60;68.50;;;;;;5030564;28;46541;-64
2022/03/18 07:35:10;;;;;;;67.70;38.03;;;7.70;68.30;;;;;;5032925;28;46461;-63
2022/03/18 07:37:36;;;;;;;71.00;38.17;;;7.70;68.20;;;;;;5030984;28;45859;-65
2022/03/18 07:40:06;;;;;;;60.97;36.13;;;7.80;67.90;;;;;;5031482;28;46354;-65
2022/03/18 07:42:42;;;;;;;61.73;37.00;;;7.90;67.50;;;;;;5030803;28;47062;-64
2022/03/18 07:45:12;;;;;;;66.60;36.40;;;8.00;67.20;;;;;;5029825;28;46570;-64
2022/03/18 07:47:38;;;;;;;59.37;34.90;;;8.00;66.60;;;;;;5030822;28;46476;-63
2022/03/18 07:50:05;;;;;;;55.63;32.17;;;8.10;66.30;;;;;;5030980;28;46495;-65
2022/03/18 07:52:31;;;;;;;58.90;35.17;;;8.20;65.20;;;;;;5029550;28;46409;-64
2022/03/18 07:54:56;;;;;;;59.27;34.30;;;8.20;64.60;;;;;;5033175;28;46463;-65
2022/03/18 07:57:22;;;;;;;57.03;30.57;;;8.30;63.90;;;;;;5034319;28;46366;-64
2022/03/18 07:59:47;;;;;;;51.70;29.20;;;8.30;63.70;;;;;;5034014;28;46763;-64
2022/03/18 08:02:13;;;;;;;56.07;30.80;;;8.30;62.90;;;;;;5033915;28;47255;-65
2022/03/18 08:04:38;;;;;;;51.63;28.53;;;8.40;62.30;;;;;;5047372;28;45762;-64
2022/03/18 08:07:04;;;;;;;56.37;31.13;;;8.30;61.70;;;;;;5041613;28;46493;-65
2022/03/18 08:09:30;;;;;;;53.40;31.40;;;8.50;61.90;;;;;;5029420;28;46687;-65
2022/03/18 08:11:56;;;;;;;49.73;28.60;;;8.60;61.70;;;;;;5026758;28;47517;-63
2022/03/18 08:14:23;;;;;;;51.60;31.17;;;8.90;61.00;;;;;;5034792;28;46235;-63
2022/03/18 08:16:49;;;;;;;46.07;27.73;;;8.80;60.40;;;;;;5032890;28;46537;-64
2022/03/18 08:19:14;;;;;;;51.43;29.33;;;8.90;60.00;;;;;;5032997;28;46520;-65
2022/03/18 08:21:41;;;;;;;48.70;29.07;;;9.20;59.80;;;;;;5035144;28;46569;-63
2022/03/18 08:24:07;;;;;;;48.03;27.27;;;9.40;58.40;;;;;;5030400;28;46332;-64
2022/03/18 08:26:36;;;;;;;46.97;29.97;;;9.50;57.80;;;;;;5030739;28;46348;-64
2022/03/18 08:29:03;;;;;;;54.07;31.17;;;9.30;57.50;;;;;;5031855;28;46402;-63
2022/03/18 08:31:30;;;;;;;44.73;27.63;;;9.20;57.10;;;;;;5029293;28;47367;-64
2022/03/18 08:33:56;;;;;;;54.30;27.90;;;9.30;56.10;;;;;;5028597;28;46458;-64
2022/03/18 08:36:22;;;;;;;47.97;27.17;;;9.50;56.10;;;;;;5030014;28;46342;-65
2022/03/18 08:38:47;;;;;;;50.07;26.77;;;9.50;56.20;;;;;;5029477;28;46502;-64
2022/03/18 08:41:13;;;;;;;46.90;27.50;;;9.50;55.80;;;;;;5031466;28;47108;-63
2022/03/18 08:43:39;;;;;;;43.63;25.50;;;9.40;56.00;;;;;;5030700;28;46288;-64
2022/03/18 08:46:04;;;;;;;49.03;28.10;;;9.40;54.80;;;;;;5030595;28;46346;-62
2022/03/18 08:48:30;;;;;;;44.13;28.17;;;9.40;54.90;;;;;;5032695;28;46328;-64
2022/03/18 08:50:55;;;;;;;41.87;25.60;;;9.30;54.80;;;;;;5032182;28;46315;-63
2022/03/18 08:53:21;;;;;;;50.97;29.67;;;9.50;54.50;;;;;;5031391;28;46390;-65
2022/03/18 08:55:47;;;;;;;48.07;27.90;;;9.70;54.70;;;;;;5027595;28;46792;-65
2022/03/18 08:58:12;;;;;;;47.93;24.43;;;9.80;53.60;;;;;;5032249;28;46502;-65
2022/03/18 09:00:38;;;;;;;44.07;26.50;;;9.80;52.80;;;;;;5028317;28;46617;-65
2022/03/18 09:03:04;;;;;;;47.70;27.83;;;9.80;53.40;;;;;;5033405;28;46345;-65
2022/03/18 09:05:30;;;;;;;46.00;27.60;;;9.80;53.00;;;;;;5029256;28;46387;-65
2022/03/18 09:07:56;;;;;;;48.10;26.50;;;9.70;52.50;;;;;;5031591;28;45935;-66
2022/03/18 09:10:22;;;;;;;47.93;25.47;;;9.70;52.40;;;;;;5032581;28;46413;-66
2022/03/18 09:12:50;;;;;;;38.80;24.53;;;9.50;52.20;;;;;;5029484;28;46218;-66
2022/03/18 09:15:18;;;;;;;40.93;26.67;;;9.60;52.30;;;;;;5030862;28;46274;-67
2022/03/18 09:17:44;;;;;;;40.70;25.13;;;9.80;52.40;;;;;;5028310;28;46009;-66
2022/03/18 09:20:10;;;;;;;43.53;23.17;;;10.00;50.40;;;;;;5027670;28;46368;-64
2022/03/18 09:22:35;;;;;;;40.90;24.97;;;10.20;49.40;;;;;;5030798;28;46381;-65
2022/03/18 09:25:01;;;;;;;41.47;26.80;;;10.30;49.70;;;;;;5031631;28;46365;-65
2022/03/18 09:27:27;;;;;;;44.20;26.00;;;10.30;49.90;;;;;;5029123;28;46490;-65
2022/03/18 09:29:53;;;;;;;43.20;25.47;;;10.40;49.50;;;;;;5032105;28;46337;-65
2022/03/18 09:32:18;;;;;;;41.83;24.83;;;10.60;49.60;;;;;;5030720;28;46380;-64
2022/03/18 09:34:44;;;;;;;38.67;23.37;;;10.80;48.80;;;;;;5029773;28;45750;-64
2022/03/18 09:37:09;;;;;;;37.00;23.10;;;10.80;48.50;;;;;;5030959;28;46319;-64
2022/03/18 09:39:35;;;;;;;44.47;25.00;;;11.00;48.40;;;;;;5029975;28;46667;-66
2022/03/18 09:42:01;;;;;;;39.70;23.73;;;11.20;47.90;;;;;;5027518;28;46386;-65
2022/03/18 09:44:37;;;;;;;40.47;23.63;;;11.30;46.30;;;;;;5032175;28;46360;-64
2022/03/18 09:47:06;;;;;;;39.60;24.60;;;11.20;45.60;;;;;;5027905;28;46659;-65
2022/03/18 09:49:34;;;;;;;45.07;24.97;;;11.00;45.60;;;;;;5027027;28;46763;-63
2022/03/18 09:51:59;;;;;;;38.13;22.90;;;10.90;45.90;;;;;;5032783;28;45793;-64
2022/03/18 09:54:27;;;;;;;43.03;24.17;;;10.70;45.70;;;;;;5028957;28;46382;-64
2022/03/18 09:56:54;;;;;;;38.83;23.43;;;10.70;46.00;;;;;;5030162;28;46617;-65
2022/03/18 09:59:21;;;;;;;44.07;23.27;;;10.60;45.70;;;;;;5031588;28;48070;-65
2022/03/18 10:01:47;;;;;;;36.37;23.70;;;10.70;45.90;;;;;;5031285;28;46513;-65
2022/03/18 10:04:14;;;;;;;36.50;22.30;;;10.70;45.20;;;;;;5035615;28;46278;-63
2022/03/18 10:06:42;;;;;;;39.50;22.57;;;10.90;44.70;;;;;;5030870;28;46308;-63
2022/03/18 10:09:09;;;;;;;33.53;21.77;;;11.00;45.00;;;;;;5034092;28;46881;-64
2022/03/18 10:11:37;;;;;;;38.83;22.80;;;11.30;45.00;;;;;;5030461;28;46365;-65
2022/03/18 10:14:08;;;;;;;45.57;22.93;;;11.40;44.70;;;;;;5014618;28;46333;-64
2022/03/18 10:16:50;;;;;;;39.20;23.87;;;11.50;44.40;;;;;;5028352;28;46719;-66
2022/03/18 10:19:25;;;;;;;37.23;23.90;;;11.40;43.60;;;;;;5034693;28;46712;-64
2022/03/18 10:21:58;;;;;;;36.73;22.00;;;11.40;43.80;;;;;;5031604;28;46319;-64
2022/03/18 10:24:27;;;;;;;41.40;21.77;;;11.10;43.60;;;;;;5029245;28;46778;-64
2022/03/18 10:27:08;;;;;;;48.10;24.40;;;10.80;44.30;;;;;;5027387;28;46576;-64
2022/03/18 10:29:41;;;;;;;39.73;21.53;;;10.80;44.60;;;;;;5037592;28;46421;-64
2022/03/18 10:32:08;;;;;;;36.47;22.03;;;10.80;44.40;;;;;;5035343;28;46567;-63
2022/03/18 10:37:25;;;;;;;39.37;23.70;;;10.80;44.40;;;;;;5030499;28;46471;-63
2022/03/18 10:39:59;;;;;;;41.33;23.13;;;10.90;43.90;;;;;;5034091;28;46496;-64
2022/03/18 10:42:25;;;;;;;40.17;23.00;;;11.10;43.50;;;;;;5035474;28;46396;-65
2022/03/18 10:44:59;;;;;;;42.17;22.67;;;11.00;43.50;;;;;;5032388;28;46835;-66
2022/03/18 10:47:26;;;;;;;34.73;21.60;;;11.10;43.50;;;;;;5032316;28;46359;-65
2022/03/18 10:50:11;;;;;;;35.27;22.17;;;11.30;43.70;;;;;;5033899;28;46911;-65
2022/03/18 10:52:40;;;;;;;37.20;21.87;;;11.40;43.10;;;;;;5033260;28;46481;-64
2022/03/18 10:55:19;;;;;;;38.47;22.30;;;11.60;42.80;;;;;;5028354;28;46184;-65
2022/03/18 10:57:55;;;;;;;36.87;22.10;;;11.70;42.40;;;;;;5029562;28;46402;-66
2022/03/18 11:00:26;;;;;;;42.90;22.87;;;11.90;41.90;;;;;;5034501;28;46613;-63
2022/03/18 11:02:58;;;;;;;37.97;21.93;;;12.10;41.40;;;;;;5035616;28;46234;-64
2022/03/18 11:05:24;;;;;;;34.60;22.40;;;12.10;40.40;;;;;;5037874;28;46374;-63
2022/03/18 11:07:53;;;;;;;38.30;21.23;;;12.10;40.30;;;;;;5034623;28;46522;-63
2022/03/18 11:13:06;;;;;;;38.07;23.23;;;12.10;40.40;;;;;;5031290;28;46455;-64
2022/03/18 11:15:34;;;;;;;36.40;23.83;;;12.30;40.50;;;;;;5033096;28;46503;-64
2022/03/18 11:18:03;;;;;;;32.67;21.27;;;12.20;40.50;;;;;;5031696;28;46225;-65
2022/03/18 11:20:32;;;;;;;36.07;21.30;;;12.10;40.30;;;;;;5031302;28;46893;-64
2022/03/18 11:22:58;;;;;;;33.90;21.20;;;12.10;39.70;;;;;;5031911;28;46327;-66
2022/03/18 11:25:25;;;;;;;36.77;19.37;;;12.20;40.00;;;;;;5030610;28;45796;-66
2022/03/18 11:27:52;;;;;;;32.83;20.83;;;12.30;38.80;;;;;;5029932;28;46459;-65
2022/03/18 11:30:22;;;;;;;34.03;21.10;;;12.30;38.60;;;;;;5032960;28;46549;-65
2022/03/18 11:33:06;;;;;;;36.90;22.37;;;12.30;38.30;;;;;;5031741;28;46407;-65
2022/03/18 11:35:50;;;;;;;38.27;22.17;;;12.30;38.30;;;;;;5032297;28;46458;-65
2022/03/18 11:38:17;;;;;;;35.27;22.17;;;12.10;38.30;;;;;;5032408;28;46482;-66
2022/03/18 11:40:53;;;;;;;41.23;22.43;;;12.00;38.50;;;;;;5031089;28;47139;-65
2022/03/18 11:43:39;;;;;;;36.40;21.47;;;11.90;39.10;;;;;;5032109;28;46334;-65
2022/03/18 11:46:16;;;;;;;40.53;22.10;;;12.00;39.40;;;;;;5034121;28;46331;-66
2022/03/18 11:48:44;;;;;;;37.60;21.70;;;12.30;39.10;;;;;;5028422;28;45996;-66
2022/03/18 11:51:33;;;;;;;32.70;20.20;;;12.40;38.70;;;;;;5031310;28;46616;-64
2022/03/18 11:54:05;;;;;;;36.07;21.40;;;12.40;38.10;;;;;;5035684;28;46339;-64
2022/03/18 11:56:39;;;;;;;39.83;22.40;;;12.30;37.70;;;;;;5032153;28;46414;-65
2022/03/18 11:59:24;;;;;;;32.17;23.10;;;12.20;37.70;;;;;;5033962;28;46406;-64
2022/03/18 12:02:17;;;;;;;33.87;20.73;;;12.20;38.00;;;;;;5031232;28;46664;-64
2022/03/18 12:04:46;;;;;;;36.23;23.60;;;12.30;37.80;;;;;;5030107;28;46804;-64
2022/03/18 12:07:30;;;;;;;38.40;19.67;;;12.30;37.70;;;;;;5029832;28;46421;-65
2022/03/18 12:09:55;;;;;;;34.97;21.17;;;12.20;37.00;;;;;;5030432;28;46464;-65
2022/03/18 12:12:24;;;;;;;31.30;21.07;;;12.30;37.20;;;;;;5029012;28;46445;-65
2022/03/18 12:14:51;;;;;;;35.37;19.40;;;12.40;37.00;;;;;;5035444;28;46292;-65
2022/03/18 12:17:17;;;;;;;33.27;20.93;;;12.30;36.00;;;;;;5030628;28;46301;-64
2022/03/18 12:19:54;;;;;;;31.20;19.93;;;12.30;36.30;;;;;;5034242;28;46594;-64
2022/03/18 12:22:22;;;;;;;34.97;21.80;;;12.30;35.90;;;;;;5031477;28;46616;-64
2022/03/18 12:24:49;;;;;;;32.67;20.80;;;12.30;36.00;;;;;;5032834;28;46413;-64
2022/03/18 12:27:26;;;;;;;38.93;21.50;;;12.20;36.10;;;;;;5031501;28;46611;-64
2022/03/18 12:30:00;;;;;;;32.93;20.53;;;12.20;36.40;;;;;;5029234;28;45868;-64
2022/03/18 12:32:27;;;;;;;39.90;22.83;;;12.30;36.40;;;;;;5026570;28;46308;-64
2022/03/18 12:34:55;;;;;;;41.53;23.63;;;12.40;36.10;;;;;;5030622;28;45823;-65
2022/03/18 12:37:27;;;;;;;37.53;23.13;;;12.30;36.10;;;;;;5031250;28;46354;-65
2022/03/18 12:40:10;;;;;;;35.73;20.87;;;12.30;36.60;;;;;;5030540;28;46368;-65
2022/03/18 12:42:54;;;;;;;32.03;21.23;;;12.40;36.20;;;;;;5030281;28;47006;-66
2022/03/18 12:45:42;;;;;;;39.70;21.47;;;12.50;35.60;;;;;;5032609;28;46035;-64
2022/03/18 12:48:08;;;;;;;35.57;21.17;;;12.60;35.70;;;;;;5029753;28;46558;-64
2022/03/18 12:50:54;;;;;;;34.37;22.47;;;12.60;35.60;;;;;;5033769;28;46121;-65
2022/03/18 12:53:21;;;;;;;34.00;20.53;;;12.60;35.30;;;;;;5030924;28;46668;-65